In Rescue
 
Open Full Screen Window  High Contrast Mode
Wind Gusting 00 knots
08
March 19, 2019 7:24 PM EDT
Weather Information
Wind Direction
  220 °
Wind Speed
  08 kt (9 mph)
Wind Gust
  00 kt (0 mph)
Altimeter
30.30 in
Visibility
10 SM
Temperature
07° C
45° F
Dewpoint
-02° C
28° F
Humidity
53%
1hr Rain Fall
00.00 in.
24hr Rain Fall
00.00 in.
Sky Condition
Scattered @ 5,500 ft
VFR

METAR KIRS 192324Z AUTO 22008KT 10SM SCT055 07/M02 A3030 RMK AO2 T00651021

FAA Disclaimer: The data displayed is for advisory purposes only and is not to be used for flight planning or operations.